This is the latest recevied weather packets stored in our database for station/object KC9DRE. If no packets are shown the sender has not sent any weather packets the latest 10 day(s).
| Time | Temp. | Humidity | Pressure | Rain* | Wind** | Luminosity | Snow |
|---|---|---|---|---|---|---|---|
| 1787590093 | 26.11° C | 55% | 1019 hPa | 0 mm | - | 767 W/m² | - |
| 1787589788 | 26.67° C | 52% | 1019 hPa | 0 mm | - | 781 W/m² | - |
| 1787589483 | 27.22° C | 47% | 1018.9 hPa | 0 mm | - | 766 W/m² | - |
| 1787589178 | 27.78° C | 48% | 1018.9 hPa | 0 mm | - | 735 W/m² | - |
| 1787588873 | 27.78° C | 49% | 1019 hPa | 0 mm | - | 785 W/m² | - |
| 1787588570 | 27.78° C | 48% | 1018.9 hPa | 0 mm | - | 768 W/m² | - |
| 1787588265 | 27.78° C | 48% | 1018.9 hPa | 0 mm | - | 713 W/m² | - |
| 1787587961 | 27.78° C | 46% | 1018.8 hPa | 0 mm | - | 704 W/m² | - |
| 1787587656 | 27.22° C | 50% | 1019 hPa | 0 mm | - | 742 W/m² | - |
| 1787587356 | 26.67° C | 49% | 1018.8 hPa | 0 mm | - | 763 W/m² | - |
| 1787587050 | 26.67° C | 50% | 1019 hPa | 0 mm | - | 736 W/m² | - |
| 1787586745 | 25.56° C | 53% | 1018.9 hPa | 0 mm | - | 726 W/m² | - |
| 1787586441 | 26.11° C | 53% | 1019 hPa | 0 mm | - | 695 W/m² | - |
| 1787586137 | 27.22° C | 47% | 1018.9 hPa | 0 mm | - | 679 W/m² | - |
| 1787585833 | 26.67° C | 48% | 1019 hPa | 0 mm | - | 660 W/m² | - |
| 1787585532 | 26.11° C | 51% | 1019.1 hPa | 0 mm | - | 646 W/m² | - |
| 1787585228 | 25.56° C | 53% | 1019 hPa | 0 mm | - | 630 W/m² | - |
| 1787584922 | 26.11° C | 51% | 1019.2 hPa | 0 mm | - | 616 W/m² | - |
| 1787584616 | 26.11° C | 52% | 1019.1 hPa | 0 mm | - | 604 W/m² | - |
| 1787584315 | 25.56° C | 50% | 1019 hPa | 0 mm | - | 588 W/m² | - |
| 1787584014 | 25.56° C | 55% | 1018.9 hPa | 0 mm | - | 575 W/m² | - |
| 1787583710 | 25° C | 55% | 1018.9 hPa | 0 mm | - | 559 W/m² | - |
| 1787583409 | 24.44° C | 53% | 1019 hPa | 0 mm | - | 545 W/m² | - |
| 1787583108 | 23.89° C | 54% | 1019.1 hPa | 0 mm | - | 537 W/m² | - |
| 1787582803 | 23.89° C | 53% | 1019.1 hPa | 0 mm | - | 522 W/m² | - |
* Rain latest hour (hover to see other rain measurements)
** Current wind speed in m/s (hover to see current wind gust speed)